sensor_id;sensor_type;location;lat;lon;timestamp;P1;durP1;ratioP1;P2;durP2;ratioP2
20397;SDS011;10358;49.590;11.030;2023-09-07T00:01:43;10.00;;;4.30;;
20397;SDS011;10358;49.590;11.030;2023-09-07T00:04:08;7.00;;;4.00;;
20397;SDS011;10358;49.590;11.030;2023-09-07T00:06:35;6.53;;;4.10;;
20397;SDS011;10358;49.590;11.030;2023-09-07T00:09:01;5.97;;;3.83;;
20397;SDS011;10358;49.590;11.030;2023-09-07T00:11:27;5.40;;;3.72;;
20397;SDS011;10358;49.590;11.030;2023-09-07T00:13:53;8.40;;;3.80;;
20397;SDS011;10358;49.590;11.030;2023-09-07T00:16:18;6.37;;;4.27;;
20397;SDS011;10358;49.590;11.030;2023-09-07T00:18:44;6.90;;;4.20;;
20397;SDS011;10358;49.590;11.030;2023-09-07T00:21:10;7.20;;;4.40;;
20397;SDS011;10358;49.590;11.030;2023-09-07T00:23:35;7.90;;;3.95;;
20397;SDS011;10358;49.590;11.030;2023-09-07T00:26:01;14.05;;;4.38;;
20397;SDS011;10358;49.590;11.030;2023-09-07T00:28:26;7.57;;;4.10;;
20397;SDS011;10358;49.590;11.030;2023-09-07T00:30:52;5.80;;;4.30;;
20397;SDS011;10358;49.590;11.030;2023-09-07T00:33:17;12.70;;;4.40;;
20397;SDS011;10358;49.590;11.030;2023-09-07T00:35:43;4.27;;;3.60;;
20397;SDS011;10358;49.590;11.030;2023-09-07T00:38:08;8.95;;;4.13;;
20397;SDS011;10358;49.590;11.030;2023-09-07T00:40:34;9.15;;;4.50;;
20397;SDS011;10358;49.590;11.030;2023-09-07T00:43:00;7.78;;;4.20;;
20397;SDS011;10358;49.590;11.030;2023-09-07T00:45:25;5.78;;;4.35;;
20397;SDS011;10358;49.590;11.030;2023-09-07T00:47:51;14.83;;;4.30;;
20397;SDS011;10358;49.590;11.030;2023-09-07T00:50:17;7.18;;;4.45;;
20397;SDS011;10358;49.590;11.030;2023-09-07T00:52:42;8.02;;;4.53;;
20397;SDS011;10358;49.590;11.030;2023-09-07T00:55:09;7.33;;;4.17;;
20397;SDS011;10358;49.590;11.030;2023-09-07T00:57:35;9.27;;;4.27;;
20397;SDS011;10358;49.590;11.030;2023-09-07T01:00:05;7.00;;;4.67;;
20397;SDS011;10358;49.590;11.030;2023-09-07T01:02:32;5.90;;;4.13;;
20397;SDS011;10358;49.590;11.030;2023-09-07T01:04:58;7.23;;;4.20;;
20397;SDS011;10358;49.590;11.030;2023-09-07T01:07:25;6.97;;;5.47;;
20397;SDS011;10358;49.590;11.030;2023-09-07T01:09:57;8.63;;;5.13;;
20397;SDS011;10358;49.590;11.030;2023-09-07T01:12:25;5.87;;;4.60;;
20397;SDS011;10358;49.590;11.030;2023-09-07T01:14:51;6.17;;;4.13;;
20397;SDS011;10358;49.590;11.030;2023-09-07T01:17:18;8.80;;;4.83;;
20397;SDS011;10358;49.590;11.030;2023-09-07T01:19:43;11.70;;;4.70;;
20397;SDS011;10358;49.590;11.030;2023-09-07T01:22:10;7.83;;;4.80;;
20397;SDS011;10358;49.590;11.030;2023-09-07T01:24:37;9.67;;;4.63;;
20397;SDS011;10358;49.590;11.030;2023-09-07T01:27:04;7.10;;;5.47;;
20397;SDS011;10358;49.590;11.030;2023-09-07T01:29:30;8.93;;;5.13;;
20397;SDS011;10358;49.590;11.030;2023-09-07T01:31:56;7.47;;;4.90;;
20397;SDS011;10358;49.590;11.030;2023-09-07T01:34:22;7.60;;;4.20;;
20397;SDS011;10358;49.590;11.030;2023-09-07T01:36:48;6.10;;;4.40;;
20397;SDS011;10358;49.590;11.030;2023-09-07T01:39:14;8.37;;;4.60;;
20397;SDS011;10358;49.590;11.030;2023-09-07T01:41:41;6.23;;;4.30;;
20397;SDS011;10358;49.590;11.030;2023-09-07T01:44:07;8.83;;;4.27;;
20397;SDS011;10358;49.590;11.030;2023-09-07T01:46:32;5.80;;;4.40;;
20397;SDS011;10358;49.590;11.030;2023-09-07T01:48:58;8.77;;;4.40;;
20397;SDS011;10358;49.590;11.030;2023-09-07T01:51:24;7.70;;;4.00;;
20397;SDS011;10358;49.590;11.030;2023-09-07T01:53:52;5.90;;;4.20;;
20397;SDS011;10358;49.590;11.030;2023-09-07T01:56:18;8.10;;;4.70;;
20397;SDS011;10358;49.590;11.030;2023-09-07T01:58:44;16.33;;;5.53;;
20397;SDS011;10358;49.590;11.030;2023-09-07T02:01:30;8.33;;;4.77;;
20397;SDS011;10358;49.590;11.030;2023-09-07T02:03:56;5.50;;;4.20;;
20397;SDS011;10358;49.590;11.030;2023-09-07T02:06:22;10.87;;;4.60;;
20397;SDS011;10358;49.590;11.030;2023-09-07T02:08:48;8.03;;;5.13;;
20397;SDS011;10358;49.590;11.030;2023-09-07T02:11:14;7.97;;;5.50;;
20397;SDS011;10358;49.590;11.030;2023-09-07T02:13:43;10.53;;;4.53;;
20397;SDS011;10358;49.590;11.030;2023-09-07T02:16:11;5.07;;;4.00;;
20397;SDS011;10358;49.590;11.030;2023-09-07T02:18:36;7.07;;;4.53;;
20397;SDS011;10358;49.590;11.030;2023-09-07T02:21:08;5.93;;;4.67;;
20397;SDS011;10358;49.590;11.030;2023-09-07T02:23:34;7.03;;;4.60;;
20397;SDS011;10358;49.590;11.030;2023-09-07T02:26:01;6.37;;;4.50;;
20397;SDS011;10358;49.590;11.030;2023-09-07T02:28:27;7.27;;;5.00;;
20397;SDS011;10358;49.590;11.030;2023-09-07T02:30:53;8.63;;;5.37;;
20397;SDS011;10358;49.590;11.030;2023-09-07T02:33:18;6.80;;;4.70;;
20397;SDS011;10358;49.590;11.030;2023-09-07T02:35:44;6.20;;;4.60;;
20397;SDS011;10358;49.590;11.030;2023-09-07T02:38:10;5.97;;;4.90;;
20397;SDS011;10358;49.590;11.030;2023-09-07T02:40:42;6.90;;;5.00;;
20397;SDS011;10358;49.590;11.030;2023-09-07T02:43:08;7.97;;;4.60;;
20397;SDS011;10358;49.590;11.030;2023-09-07T02:45:34;6.33;;;4.47;;
20397;SDS011;10358;49.590;11.030;2023-09-07T02:48:00;9.00;;;5.40;;
20397;SDS011;10358;49.590;11.030;2023-09-07T02:50:26;5.77;;;4.60;;
20397;SDS011;10358;49.590;11.030;2023-09-07T02:52:53;6.00;;;4.87;;
20397;SDS011;10358;49.590;11.030;2023-09-07T02:55:18;10.60;;;5.43;;
20397;SDS011;10358;49.590;11.030;2023-09-07T02:57:44;7.33;;;5.17;;
20397;SDS011;10358;49.590;11.030;2023-09-07T03:00:09;9.43;;;4.60;;
20397;SDS011;10358;49.590;11.030;2023-09-07T03:02:36;6.90;;;5.15;;
20397;SDS011;10358;49.590;11.030;2023-09-07T03:05:02;8.37;;;5.63;;
20397;SDS011;10358;49.590;11.030;2023-09-07T03:07:32;6.17;;;4.57;;
20397;SDS011;10358;49.590;11.030;2023-09-07T03:09:58;7.67;;;4.67;;
20397;SDS011;10358;49.590;11.030;2023-09-07T03:12:24;9.73;;;5.97;;
20397;SDS011;10358;49.590;11.030;2023-09-07T03:14:49;8.17;;;6.07;;
20397;SDS011;10358;49.590;11.030;2023-09-07T03:17:18;7.90;;;5.73;;
20397;SDS011;10358;49.590;11.030;2023-09-07T03:19:45;8.60;;;5.30;;
20397;SDS011;10358;49.590;11.030;2023-09-07T03:22:11;8.27;;;6.10;;
20397;SDS011;10358;49.590;11.030;2023-09-07T03:24:37;8.30;;;5.43;;
20397;SDS011;10358;49.590;11.030;2023-09-07T03:27:02;8.33;;;5.30;;
20397;SDS011;10358;49.590;11.030;2023-09-07T03:29:29;7.03;;;5.30;;
20397;SDS011;10358;49.590;11.030;2023-09-07T03:31:55;6.47;;;4.97;;
20397;SDS011;10358;49.590;11.030;2023-09-07T03:34:20;7.33;;;5.10;;
20397;SDS011;10358;49.590;11.030;2023-09-07T03:36:46;7.83;;;5.47;;
20397;SDS011;10358;49.590;11.030;2023-09-07T03:39:11;5.83;;;4.47;;
20397;SDS011;10358;49.590;11.030;2023-09-07T03:41:37;6.93;;;4.70;;
20397;SDS011;10358;49.590;11.030;2023-09-07T03:44:03;7.70;;;5.00;;
20397;SDS011;10358;49.590;11.030;2023-09-07T03:46:28;8.53;;;5.10;;
20397;SDS011;10358;49.590;11.030;2023-09-07T03:48:54;6.50;;;4.93;;
20397;SDS011;10358;49.590;11.030;2023-09-07T03:51:19;7.93;;;5.17;;
20397;SDS011;10358;49.590;11.030;2023-09-07T03:53:45;8.87;;;5.67;;
20397;SDS011;10358;49.590;11.030;2023-09-07T03:56:10;7.33;;;5.00;;
20397;SDS011;10358;49.590;11.030;2023-09-07T03:58:36;8.53;;;5.30;;
20397;SDS011;10358;49.590;11.030;2023-09-07T04:01:01;6.27;;;5.07;;
20397;SDS011;10358;49.590;11.030;2023-09-07T04:03:27;16.40;;;8.20;;
20397;SDS011;10358;49.590;11.030;2023-09-07T04:05:53;12.93;;;6.53;;
20397;SDS011;10358;49.590;11.030;2023-09-07T04:08:18;7.97;;;5.70;;
20397;SDS011;10358;49.590;11.030;2023-09-07T04:10:44;8.47;;;5.33;;
20397;SDS011;10358;49.590;11.030;2023-09-07T04:13:09;8.43;;;5.20;;
20397;SDS011;10358;49.590;11.030;2023-09-07T04:15:44;7.63;;;4.77;;
20397;SDS011;10358;49.590;11.030;2023-09-07T04:18:11;8.87;;;5.03;;
20397;SDS011;10358;49.590;11.030;2023-09-07T04:20:41;8.33;;;4.93;;
20397;SDS011;10358;49.590;11.030;2023-09-07T04:23:07;9.40;;;4.97;;
20397;SDS011;10358;49.590;11.030;2023-09-07T04:25:33;8.30;;;5.13;;
20397;SDS011;10358;49.590;11.030;2023-09-07T04:27:59;8.20;;;4.80;;
20397;SDS011;10358;49.590;11.030;2023-09-07T04:30:25;10.37;;;4.90;;
20397;SDS011;10358;49.590;11.030;2023-09-07T04:32:50;8.50;;;4.70;;
20397;SDS011;10358;49.590;11.030;2023-09-07T04:35:16;7.57;;;5.03;;
20397;SDS011;10358;49.590;11.030;2023-09-07T04:37:42;11.57;;;5.60;;
20397;SDS011;10358;49.590;11.030;2023-09-07T04:40:08;8.50;;;4.73;;
20397;SDS011;10358;49.590;11.030;2023-09-07T04:45:02;9.20;;;5.50;;
20397;SDS011;10358;49.590;11.030;2023-09-07T04:47:28;10.73;;;5.63;;
20397;SDS011;10358;49.590;11.030;2023-09-07T04:49:53;8.80;;;6.33;;
20397;SDS011;10358;49.590;11.030;2023-09-07T04:52:19;13.77;;;6.37;;
20397;SDS011;10358;49.590;11.030;2023-09-07T04:54:45;9.10;;;5.67;;
20397;SDS011;10358;49.590;11.030;2023-09-07T04:57:10;8.17;;;5.47;;
20397;SDS011;10358;49.590;11.030;2023-09-07T04:59:37;12.27;;;6.30;;
20397;SDS011;10358;49.590;11.030;2023-09-07T05:02:02;10.50;;;6.87;;
20397;SDS011;10358;49.590;11.030;2023-09-07T05:04:28;8.23;;;5.77;;
20397;SDS011;10358;49.590;11.030;2023-09-07T05:06:56;6.93;;;5.47;;
20397;SDS011;10358;49.590;11.030;2023-09-07T05:09:21;9.23;;;4.80;;
20397;SDS011;10358;49.590;11.030;2023-09-07T05:11:48;9.03;;;4.80;;
20397;SDS011;10358;49.590;11.030;2023-09-07T05:14:14;7.17;;;5.00;;
20397;SDS011;10358;49.590;11.030;2023-09-07T05:16:42;11.47;;;4.80;;
20397;SDS011;10358;49.590;11.030;2023-09-07T05:19:08;11.63;;;4.73;;
20397;SDS011;10358;49.590;11.030;2023-09-07T05:21:33;12.53;;;4.70;;
20397;SDS011;10358;49.590;11.030;2023-09-07T05:23:59;11.97;;;4.53;;
20397;SDS011;10358;49.590;11.030;2023-09-07T05:26:24;10.10;;;4.80;;
20397;SDS011;10358;49.590;11.030;2023-09-07T05:28:50;6.20;;;4.47;;
20397;SDS011;10358;49.590;11.030;2023-09-07T05:31:16;7.30;;;4.93;;
20397;SDS011;10358;49.590;11.030;2023-09-07T05:33:41;5.10;;;4.10;;
20397;SDS011;10358;49.590;11.030;2023-09-07T05:36:07;9.30;;;4.20;;
20397;SDS011;10358;49.590;11.030;2023-09-07T05:38:32;7.53;;;4.33;;
20397;SDS011;10358;49.590;11.030;2023-09-07T05:40:58;7.80;;;4.30;;
20397;SDS011;10358;49.590;11.030;2023-09-07T05:43:23;9.80;;;5.37;;
20397;SDS011;10358;49.590;11.030;2023-09-07T05:45:49;8.63;;;4.70;;
20397;SDS011;10358;49.590;11.030;2023-09-07T05:48:14;7.97;;;5.30;;
20397;SDS011;10358;49.590;11.030;2023-09-07T05:50:43;6.77;;;4.80;;
20397;SDS011;10358;49.590;11.030;2023-09-07T05:53:09;7.83;;;5.60;;
20397;SDS011;10358;49.590;11.030;2023-09-07T05:55:35;9.67;;;5.47;;
20397;SDS011;10358;49.590;11.030;2023-09-07T05:58:04;9.47;;;5.53;;
20397;SDS011;10358;49.590;11.030;2023-09-07T06:00:30;9.03;;;5.17;;
20397;SDS011;10358;49.590;11.030;2023-09-07T06:02:56;9.67;;;5.70;;
20397;SDS011;10358;49.590;11.030;2023-09-07T06:05:21;9.03;;;5.50;;
20397;SDS011;10358;49.590;11.030;2023-09-07T06:07:47;7.93;;;5.10;;
20397;SDS011;10358;49.590;11.030;2023-09-07T06:10:13;9.47;;;4.60;;
20397;SDS011;10358;49.590;11.030;2023-09-07T06:12:39;7.67;;;4.70;;
20397;SDS011;10358;49.590;11.030;2023-09-07T06:15:04;8.03;;;5.40;;
20397;SDS011;10358;49.590;11.030;2023-09-07T06:17:30;16.27;;;10.48;;
20397;SDS011;10358;49.590;11.030;2023-09-07T06:19:56;15.95;;;8.63;;
20397;SDS011;10358;49.590;11.030;2023-09-07T06:22:22;18.27;;;9.90;;
20397;SDS011;10358;49.590;11.030;2023-09-07T06:24:48;9.18;;;6.95;;
20397;SDS011;10358;49.590;11.030;2023-09-07T06:27:14;9.43;;;5.97;;
20397;SDS011;10358;49.590;11.030;2023-09-07T06:29:39;12.63;;;5.60;;
20397;SDS011;10358;49.590;11.030;2023-09-07T06:32:05;12.13;;;6.03;;
20397;SDS011;10358;49.590;11.030;2023-09-07T06:34:31;9.32;;;6.05;;
20397;SDS011;10358;49.590;11.030;2023-09-07T06:36:56;10.65;;;5.82;;
20397;SDS011;10358;49.590;11.030;2023-09-07T06:39:22;9.68;;;5.70;;
20397;SDS011;10358;49.590;11.030;2023-09-07T06:41:47;10.73;;;5.80;;
20397;SDS011;10358;49.590;11.030;2023-09-07T06:44:13;9.15;;;5.53;;
20397;SDS011;10358;49.590;11.030;2023-09-07T06:46:39;10.02;;;5.97;;
20397;SDS011;10358;49.590;11.030;2023-09-07T06:49:05;9.60;;;6.10;;
20397;SDS011;10358;49.590;11.030;2023-09-07T06:51:30;8.38;;;5.43;;
20397;SDS011;10358;49.590;11.030;2023-09-07T06:53:56;6.88;;;5.22;;
20397;SDS011;10358;49.590;11.030;2023-09-07T06:56:22;9.50;;;5.50;;
20397;SDS011;10358;49.590;11.030;2023-09-07T06:58:48;7.15;;;5.10;;
20397;SDS011;10358;49.590;11.030;2023-09-07T07:01:14;8.00;;;5.53;;
20397;SDS011;10358;49.590;11.030;2023-09-07T07:03:40;8.98;;;5.35;;
20397;SDS011;10358;49.590;11.030;2023-09-07T07:06:06;13.70;;;5.22;;
20397;SDS011;10358;49.590;11.030;2023-09-07T07:08:32;9.48;;;4.95;;
20397;SDS011;10358;49.590;11.030;2023-09-07T07:10:57;8.57;;;4.97;;
20397;SDS011;10358;49.590;11.030;2023-09-07T07:13:23;13.65;;;4.88;;
20397;SDS011;10358;49.590;11.030;2023-09-07T07:15:48;8.13;;;5.03;;
20397;SDS011;10358;49.590;11.030;2023-09-07T07:18:14;13.85;;;4.95;;
20397;SDS011;10358;49.590;11.030;2023-09-07T07:20:40;8.93;;;4.90;;
20397;SDS011;10358;49.590;11.030;2023-09-07T07:23:06;6.75;;;4.30;;
20397;SDS011;10358;49.590;11.030;2023-09-07T07:25:32;6.40;;;4.57;;
20397;SDS011;10358;49.590;11.030;2023-09-07T07:28:01;10.50;;;4.63;;
20397;SDS011;10358;49.590;11.030;2023-09-07T07:30:35;5.90;;;4.22;;
20397;SDS011;10358;49.590;11.030;2023-09-07T07:33:02;6.43;;;4.30;;
20397;SDS011;10358;49.590;11.030;2023-09-07T07:35:33;8.40;;;4.15;;
20397;SDS011;10358;49.590;11.030;2023-09-07T07:38:00;6.47;;;4.20;;
20397;SDS011;10358;49.590;11.030;2023-09-07T07:40:26;6.13;;;4.07;;
20397;SDS011;10358;49.590;11.030;2023-09-07T07:42:52;7.22;;;4.50;;
20397;SDS011;10358;49.590;11.030;2023-09-07T07:45:18;6.88;;;4.15;;
20397;SDS011;10358;49.590;11.030;2023-09-07T07:47:45;7.50;;;3.70;;
20397;SDS011;10358;49.590;11.030;2023-09-07T07:50:10;8.75;;;3.75;;
20397;SDS011;10358;49.590;11.030;2023-09-07T07:52:36;5.95;;;3.92;;
20397;SDS011;10358;49.590;11.030;2023-09-07T07:55:02;6.93;;;4.00;;
20397;SDS011;10358;49.590;11.030;2023-09-07T07:57:27;9.88;;;3.88;;
20397;SDS011;10358;49.590;11.030;2023-09-07T07:59:53;7.60;;;3.80;;
20397;SDS011;10358;49.590;11.030;2023-09-07T08:02:20;6.28;;;3.78;;
20397;SDS011;10358;49.590;11.030;2023-09-07T08:04:45;7.93;;;3.60;;
20397;SDS011;10358;49.590;11.030;2023-09-07T08:07:11;4.88;;;3.33;;
20397;SDS011;10358;49.590;11.030;2023-09-07T08:09:37;5.13;;;3.35;;
20397;SDS011;10358;49.590;11.030;2023-09-07T08:12:03;4.55;;;3.30;;
20397;SDS011;10358;49.590;11.030;2023-09-07T08:14:30;6.95;;;3.22;;
20397;SDS011;10358;49.590;11.030;2023-09-07T08:16:56;6.00;;;3.00;;
20397;SDS011;10358;49.590;11.030;2023-09-07T08:19:22;4.20;;;3.40;;
20397;SDS011;10358;49.590;11.030;2023-09-07T08:21:47;4.53;;;3.40;;
20397;SDS011;10358;49.590;11.030;2023-09-07T08:24:13;7.00;;;3.70;;
20397;SDS011;10358;49.590;11.030;2023-09-07T08:26:39;7.00;;;3.47;;
20397;SDS011;10358;49.590;11.030;2023-09-07T08:29:04;10.15;;;4.03;;
20397;SDS011;10358;49.590;11.030;2023-09-07T08:31:31;6.72;;;3.70;;
20397;SDS011;10358;49.590;11.030;2023-09-07T08:33:59;6.18;;;3.30;;
20397;SDS011;10358;49.590;11.030;2023-09-07T08:36:29;5.07;;;3.22;;
20397;SDS011;10358;49.590;11.030;2023-09-07T08:38:57;8.68;;;3.55;;
20397;SDS011;10358;49.590;11.030;2023-09-07T08:41:26;5.22;;;3.15;;
20397;SDS011;10358;49.590;11.030;2023-09-07T08:43:53;5.63;;;3.30;;
20397;SDS011;10358;49.590;11.030;2023-09-07T08:46:20;5.95;;;3.50;;
20397;SDS011;10358;49.590;11.030;2023-09-07T08:48:47;4.90;;;3.40;;
20397;SDS011;10358;49.590;11.030;2023-09-07T08:51:17;6.45;;;3.58;;
20397;SDS011;10358;49.590;11.030;2023-09-07T08:53:43;6.72;;;4.93;;
20397;SDS011;10358;49.590;11.030;2023-09-07T08:56:12;6.47;;;4.03;;
20397;SDS011;10358;49.590;11.030;2023-09-07T08:58:38;8.15;;;4.35;;
20397;SDS011;10358;49.590;11.030;2023-09-07T09:01:05;5.40;;;3.55;;
20397;SDS011;10358;49.590;11.030;2023-09-07T09:03:31;6.38;;;3.70;;
20397;SDS011;10358;49.590;11.030;2023-09-07T09:05:56;4.90;;;3.05;;
20397;SDS011;10358;49.590;11.030;2023-09-07T09:08:22;6.97;;;3.63;;
20397;SDS011;10358;49.590;11.030;2023-09-07T09:10:49;7.13;;;3.70;;
20397;SDS011;10358;49.590;11.030;2023-09-07T09:13:31;10.77;;;4.00;;
20397;SDS011;10358;49.590;11.030;2023-09-07T09:16:00;3.70;;;3.00;;
20397;SDS011;10358;49.590;11.030;2023-09-07T09:18:26;6.25;;;3.40;;
20397;SDS011;10358;49.590;11.030;2023-09-07T09:20:53;8.88;;;3.50;;
20397;SDS011;10358;49.590;11.030;2023-09-07T09:23:19;4.22;;;3.47;;
20397;SDS011;10358;49.590;11.030;2023-09-07T09:25:47;5.25;;;3.15;;
20397;SDS011;10358;49.590;11.030;2023-09-07T09:28:13;6.80;;;3.20;;
20397;SDS011;10358;49.590;11.030;2023-09-07T09:30:39;5.88;;;3.20;;
20397;SDS011;10358;49.590;11.030;2023-09-07T09:33:08;10.02;;;3.72;;
20397;SDS011;10358;49.590;11.030;2023-09-07T09:35:34;5.47;;;3.28;;
20397;SDS011;10358;49.590;11.030;2023-09-07T09:38:01;4.63;;;3.10;;
20397;SDS011;10358;49.590;11.030;2023-09-07T09:40:30;4.03;;;3.20;;
20397;SDS011;10358;49.590;11.030;2023-09-07T09:42:58;5.85;;;3.45;;
20397;SDS011;10358;49.590;11.030;2023-09-07T09:45:26;4.80;;;3.00;;
20397;SDS011;10358;49.590;11.030;2023-09-07T09:47:52;4.43;;;3.40;;
20397;SDS011;10358;49.590;11.030;2023-09-07T09:50:20;6.75;;;3.30;;
20397;SDS011;10358;49.590;11.030;2023-09-07T09:52:47;6.88;;;3.38;;
20397;SDS011;10358;49.590;11.030;2023-09-07T09:55:13;6.15;;;3.50;;
20397;SDS011;10358;49.590;11.030;2023-09-07T09:57:40;5.18;;;3.55;;
20397;SDS011;10358;49.590;11.030;2023-09-07T10:00:06;3.83;;;2.85;;
20397;SDS011;10358;49.590;11.030;2023-09-07T10:02:48;7.38;;;3.30;;
20397;SDS011;10358;49.590;11.030;2023-09-07T10:05:16;5.45;;;2.78;;
20397;SDS011;10358;49.590;11.030;2023-09-07T10:07:44;3.47;;;2.60;;
20397;SDS011;10358;49.590;11.030;2023-09-07T10:10:12;6.20;;;3.13;;
20397;SDS011;10358;49.590;11.030;2023-09-07T10:13:00;6.60;;;3.70;;
20397;SDS011;10358;49.590;11.030;2023-09-07T10:15:26;4.20;;;3.10;;
20397;SDS011;10358;49.590;11.030;2023-09-07T10:20:50;5.68;;;3.20;;
20397;SDS011;10358;49.590;11.030;2023-09-07T10:23:20;3.85;;;2.88;;
20397;SDS011;10358;49.590;11.030;2023-09-07T10:25:50;6.00;;;3.20;;
20397;SDS011;10358;49.590;11.030;2023-09-07T10:28:17;5.50;;;3.00;;
20397;SDS011;10358;49.590;11.030;2023-09-07T10:31:13;5.50;;;3.30;;
20397;SDS011;10358;49.590;11.030;2023-09-07T10:33:40;8.85;;;3.15;;
20397;SDS011;10358;49.590;11.030;2023-09-07T10:36:06;5.20;;;3.15;;
20397;SDS011;10358;49.590;11.030;2023-09-07T10:38:32;5.00;;;3.17;;
20397;SDS011;10358;49.590;11.030;2023-09-07T10:40:59;5.97;;;3.10;;
20397;SDS011;10358;49.590;11.030;2023-09-07T10:43:26;5.97;;;3.15;;
20397;SDS011;10358;49.590;11.030;2023-09-07T10:45:53;4.95;;;3.10;;
20397;SDS011;10358;49.590;11.030;2023-09-07T10:48:20;9.60;;;3.30;;
20397;SDS011;10358;49.590;11.030;2023-09-07T10:50:46;4.47;;;3.10;;
20397;SDS011;10358;49.590;11.030;2023-09-07T10:53:15;5.22;;;3.05;;
20397;SDS011;10358;49.590;11.030;2023-09-07T10:55:50;7.43;;;3.00;;
20397;SDS011;10358;49.590;11.030;2023-09-07T10:58:24;9.52;;;2.95;;
20397;SDS011;10358;49.590;11.030;2023-09-07T11:00:55;4.55;;;3.10;;
20397;SDS011;10358;49.590;11.030;2023-09-07T11:03:21;5.40;;;3.08;;
20397;SDS011;10358;49.590;11.030;2023-09-07T11:05:47;5.38;;;3.33;;
20397;SDS011;10358;49.590;11.030;2023-09-07T11:08:13;3.72;;;3.20;;
20397;SDS011;10358;49.590;11.030;2023-09-07T11:10:39;8.90;;;3.05;;
20397;SDS011;10358;49.590;11.030;2023-09-07T11:13:05;5.38;;;2.88;;
20397;SDS011;10358;49.590;11.030;2023-09-07T11:15:32;3.92;;;2.95;;
20397;SDS011;10358;49.590;11.030;2023-09-07T11:18:07;4.68;;;3.08;;
20397;SDS011;10358;49.590;11.030;2023-09-07T11:20:34;7.03;;;3.45;;
20397;SDS011;10358;49.590;11.030;2023-09-07T11:23:00;8.00;;;3.88;;
20397;SDS011;10358;49.590;11.030;2023-09-07T11:25:26;3.90;;;3.00;;
20397;SDS011;10358;49.590;11.030;2023-09-07T11:27:52;4.68;;;3.55;;
20397;SDS011;10358;49.590;11.030;2023-09-07T11:30:20;6.35;;;2.83;;
20397;SDS011;10358;49.590;11.030;2023-09-07T11:32:46;4.45;;;2.92;;
20397;SDS011;10358;49.590;11.030;2023-09-07T11:35:12;4.30;;;2.90;;
20397;SDS011;10358;49.590;11.030;2023-09-07T11:37:37;5.47;;;2.63;;
20397;SDS011;10358;49.590;11.030;2023-09-07T11:40:05;6.68;;;3.25;;
20397;SDS011;10358;49.590;11.030;2023-09-07T11:42:37;4.93;;;3.08;;
20397;SDS011;10358;49.590;11.030;2023-09-07T11:45:06;6.07;;;2.92;;
20397;SDS011;10358;49.590;11.030;2023-09-07T11:47:32;5.60;;;3.10;;
20397;SDS011;10358;49.590;11.030;2023-09-07T11:49:59;7.00;;;2.50;;
20397;SDS011;10358;49.590;11.030;2023-09-07T11:52:25;8.02;;;3.28;;
20397;SDS011;10358;49.590;11.030;2023-09-07T11:54:51;4.80;;;2.85;;
20397;SDS011;10358;49.590;11.030;2023-09-07T11:57:16;4.78;;;2.92;;
20397;SDS011;10358;49.590;11.030;2023-09-07T11:59:42;7.22;;;3.35;;
20397;SDS011;10358;49.590;11.030;2023-09-07T12:02:07;3.42;;;2.63;;
20397;SDS011;10358;49.590;11.030;2023-09-07T12:04:36;6.30;;;3.10;;
20397;SDS011;10358;49.590;11.030;2023-09-07T12:07:02;5.88;;;3.20;;
20397;SDS011;10358;49.590;11.030;2023-09-07T12:09:28;6.05;;;3.10;;
20397;SDS011;10358;49.590;11.030;2023-09-07T12:11:54;5.03;;;2.88;;
20397;SDS011;10358;49.590;11.030;2023-09-07T12:14:19;7.18;;;3.22;;
20397;SDS011;10358;49.590;11.030;2023-09-07T12:16:45;4.93;;;2.83;;
20397;SDS011;10358;49.590;11.030;2023-09-07T12:19:10;3.60;;;2.72;;
20397;SDS011;10358;49.590;11.030;2023-09-07T12:21:36;6.15;;;3.10;;
20397;SDS011;10358;49.590;11.030;2023-09-07T12:24:03;8.02;;;3.28;;
20397;SDS011;10358;49.590;11.030;2023-09-07T12:26:29;5.35;;;2.78;;
20397;SDS011;10358;49.590;11.030;2023-09-07T12:28:54;3.97;;;3.00;;
20397;SDS011;10358;49.590;11.030;2023-09-07T12:31:20;7.75;;;3.38;;
20397;SDS011;10358;49.590;11.030;2023-09-07T12:33:45;6.88;;;3.10;;
20397;SDS011;10358;49.590;11.030;2023-09-07T12:36:11;3.42;;;2.70;;
20397;SDS011;10358;49.590;11.030;2023-09-07T12:38:37;3.60;;;2.70;;
20397;SDS011;10358;49.590;11.030;2023-09-07T12:41:02;4.75;;;3.00;;
20397;SDS011;10358;49.590;11.030;2023-09-07T12:43:28;4.43;;;2.80;;
20397;SDS011;10358;49.590;11.030;2023-09-07T12:45:54;3.63;;;2.67;;
20397;SDS011;10358;49.590;11.030;2023-09-07T12:48:20;4.25;;;3.00;;
20397;SDS011;10358;49.590;11.030;2023-09-07T12:50:46;4.70;;;3.25;;
20397;SDS011;10358;49.590;11.030;2023-09-07T12:53:12;5.80;;;3.05;;
20397;SDS011;10358;49.590;11.030;2023-09-07T12:55:37;5.53;;;2.90;;
20397;SDS011;10358;49.590;11.030;2023-09-07T12:58:03;5.38;;;2.90;;
20397;SDS011;10358;49.590;11.030;2023-09-07T13:00:28;5.43;;;3.00;;
20397;SDS011;10358;49.590;11.030;2023-09-07T13:02:54;5.72;;;3.30;;
20397;SDS011;10358;49.590;11.030;2023-09-07T13:05:21;3.95;;;2.90;;
20397;SDS011;10358;49.590;11.030;2023-09-07T13:07:46;3.97;;;2.60;;
20397;SDS011;10358;49.590;11.030;2023-09-07T13:10:13;7.97;;;2.85;;
20397;SDS011;10358;49.590;11.030;2023-09-07T13:12:39;4.53;;;3.00;;
20397;SDS011;10358;49.590;11.030;2023-09-07T13:15:06;4.63;;;2.88;;
20397;SDS011;10358;49.590;11.030;2023-09-07T13:17:32;4.32;;;2.90;;
20397;SDS011;10358;49.590;11.030;2023-09-07T13:19:58;4.45;;;3.03;;
20397;SDS011;10358;49.590;11.030;2023-09-07T13:22:23;3.83;;;2.90;;
20397;SDS011;10358;49.590;11.030;2023-09-07T13:24:49;3.90;;;2.83;;
20397;SDS011;10358;49.590;11.030;2023-09-07T13:27:15;5.40;;;3.28;;
20397;SDS011;10358;49.590;11.030;2023-09-07T13:29:41;3.70;;;2.55;;
20397;SDS011;10358;49.590;11.030;2023-09-07T13:32:06;5.50;;;3.30;;
20397;SDS011;10358;49.590;11.030;2023-09-07T13:34:32;4.90;;;2.90;;
20397;SDS011;10358;49.590;11.030;2023-09-07T13:36:57;4.35;;;2.85;;
20397;SDS011;10358;49.590;11.030;2023-09-07T13:39:23;5.07;;;2.85;;
20397;SDS011;10358;49.590;11.030;2023-09-07T13:41:49;4.60;;;3.05;;
20397;SDS011;10358;49.590;11.030;2023-09-07T13:44:15;5.03;;;2.75;;
20397;SDS011;10358;49.590;11.030;2023-09-07T13:46:41;3.83;;;3.28;;
20397;SDS011;10358;49.590;11.030;2023-09-07T13:49:08;6.88;;;2.90;;
20397;SDS011;10358;49.590;11.030;2023-09-07T13:51:34;5.80;;;2.75;;
20397;SDS011;10358;49.590;11.030;2023-09-07T13:54:04;4.32;;;3.30;;
20397;SDS011;10358;49.590;11.030;2023-09-07T13:56:30;4.80;;;2.80;;
20397;SDS011;10358;49.590;11.030;2023-09-07T13:58:56;4.60;;;2.80;;
20397;SDS011;10358;49.590;11.030;2023-09-07T14:01:21;5.40;;;2.90;;
20397;SDS011;10358;49.590;11.030;2023-09-07T14:03:48;5.43;;;3.15;;
20397;SDS011;10358;49.590;11.030;2023-09-07T14:06:14;4.07;;;2.90;;
20397;SDS011;10358;49.590;11.030;2023-09-07T14:08:40;5.10;;;3.10;;
20397;SDS011;10358;49.590;11.030;2023-09-07T14:11:05;6.22;;;3.03;;
20397;SDS011;10358;49.590;11.030;2023-09-07T14:13:31;6.03;;;3.20;;
20397;SDS011;10358;49.590;11.030;2023-09-07T14:16:00;6.35;;;3.10;;
20397;SDS011;10358;49.590;11.030;2023-09-07T14:18:25;8.43;;;3.50;;
20397;SDS011;10358;49.590;11.030;2023-09-07T14:20:51;4.03;;;3.13;;
20397;SDS011;10358;49.590;11.030;2023-09-07T14:23:17;4.13;;;3.10;;
20397;SDS011;10358;49.590;11.030;2023-09-07T14:25:45;3.72;;;2.67;;
20397;SDS011;10358;49.590;11.030;2023-09-07T14:28:12;3.35;;;2.65;;
20397;SDS011;10358;49.590;11.030;2023-09-07T14:30:37;5.82;;;2.90;;
20397;SDS011;10358;49.590;11.030;2023-09-07T14:33:03;4.68;;;2.90;;
20397;SDS011;10358;49.590;11.030;2023-09-07T14:35:29;6.05;;;2.80;;